x

Western Gulf Of Alaska - 175nm Se Of Kodiak, Ak (46001) Wave Buoy

1:50pm - Sat 3rd Dec 2016 All times are AKST. -9 hours from GMT.

  • Sig Wave height 19.0ft
  • Peak Period 11s
  • Average Period 8s
  • Wind
    29mph, 38mph gusts
  • Sea Temp 45°f
  • Air Temp 28°f
  • Sea Pressure 1005.8mb
  • Western Gulf Of Alaska  - 175nm Se Of Kodiak, Ak
  • Western Gulf Of Alaska  - 175nm Se Of Kodiak, Ak

More Historic Weather Station data

Upgrade to MSW Pro to gain access to the past 30 days of data for over 8000 Wavebouys and Weather Stations around the globe.

Join Pro

Comparision Forecast

View Surf forecast
   
Sat 12/03 1:50pm 19ft 11s 8s 29 38 mph 1005.8mb 45f 28f
12:50pm 18.5ft 11s 8s 31 40 mph 1005.8mb 45f 28f
11:50am 19ft 11s 8s 29 38 mph 1006mb 45f 28f
10:50am 20.5ft 12s 8s 27 36 mph 1005.9mb 45f 30f
9:50am 20.5ft 13s 8s 34 45 mph 1005.6mb 45f 32f
8:50am 21.5ft 13s 8s 31 40 mph 1005.9mb 45f 31f
7:50am 23.5ft 11s 9s 34 43 mph 1005.8mb 45f 32f
6:50am 23ft 12s 9s 34 43 mph 1005.7mb 45f 32f
5:50am 23ft 11s 9s 36 47 mph 1005.4mb 45f 31f
4:50am 21.5ft 12s 9s 36 47 mph 1005.3mb 45f 31f
3:50am 21.5ft 11s 8s 34 43 mph 1005.1mb 45f 31f
2:50am 20.5ft 12s 8s 34 43 mph 1004.8mb 45f 31f
1:50am 20ft 12s 8s 36 43 mph 1004.3mb 45f 32f
12:50am 20ft 13s 8s 34 43 mph 1003.3mb 45f 32f
Fri 12/02 11:50pm 18.5ft 11s 8s 34 43 mph 1002.6mb 45f 32f
10:50pm 21ft 13s 8s 34 38 mph 1002.2mb 45f 33f
9:50pm 21.5ft 12s 8s 36 45 mph 1001.1mb 45f 33f
8:50pm 18.5ft 11s 8s 36 45 mph 1000.2mb 45f 33f
7:50pm 19.5ft 11s 8s 34 40 mph 999mb 45f 34f
6:50pm 17.5ft 11s 8s 29 38 mph 997.5mb 45f 36f
5:50pm 19.5ft 11s 8s 29 38 mph 996mb 45f 36f
4:50pm 18ft 11s 8s 27 34 mph 994.7mb 45f 36f
3:50pm 19.5ft 11s 8s 27 31 mph 993.9mb 45f 37f
2:50pm 19ft 11s 8s 27 31 mph 993mb 45f 37f
1:50pm 17ft 12s 8s 27 34 mph 992.3mb 45f 38f
12:50pm 19ft 10s 8s 29 36 mph 991.6mb 45f 38f
11:50am 17.5ft 11s 8s 29 36 mph 991mb 45f 39f
10:50am 18.5ft 9s 8s 27 34 mph 990.2mb 45f 38f
9:50am 16.5ft 9s 7s 34 40 mph 988.9mb 45f 37f
8:50am 15.5ft 9s 7s 31 38 mph 987.5mb 45f 39f
7:50am 12.5ft 11s 6s 31 38 mph 985.9mb 45f 40f
6:50am 14ft 11s 7s 29 36 mph 984.5mb 45f 42f
5:50am 12ft 11s 6s 31 38 mph 983.2mb 45f 43f
4:50am 12.5ft 8s 7s 27 34 mph 982mb 45f 43f
3:50am 13ft 10s 7s 27 34 mph 981mb 45f 42f
2:50am 12ft 10s 7s 25 31 mph 980mb 45f 43f
1:50am 14ft 8s 8s 27 34 mph 979mb 45f 43f
12:50am 14ft 14s 7s 29 34 mph 978mb 45f 43f
Thu 12/01 11:50pm 14ft 15s 7s 27 34 mph 977.2mb 45f 43f
10:50pm 15ft 14s 7s 27 34 mph 976.3mb 45f 43f
9:50pm 12.5ft 14s 7s 29 36 mph 975.2mb 45f 42f
8:50pm 13.5ft 12s 7s 29 40 mph 974.1mb 45f 42f
7:50pm 11.5ft 14s 6s 31 38 mph 973.7mb 45f 42f
6:50pm 12ft 14s 7s 31 38 mph 974.2mb 45f 41f
5:50pm 12ft 13s 7s 27 38 mph 975.3mb 45f 42f
4:50pm 13ft 13s 8s 27 34 mph 976.7mb 45f 41f
3:50pm 12ft 11s 8s 25 34 mph 978.3mb 45f 42f
2:50pm 14ft 11s 8s 20 27 mph 980.7mb 45f 42f
1:50pm 12.5ft 13s 8s 11 13 mph 983.2mb 45f 42f
12:50pm 13ft 12s 8s 11 16 mph 985.7mb 45f 41f
11:50am 14ft 12s 8s 18 25 mph 987.8mb 45f 44f
10:50am 14ft 13s 8s 22 27 mph 989.2mb 45f 43f
9:50am 14ft 11s 8s 20 22 mph 990mb 45f 44f
8:50am 14ft 11s 8s 20 25 mph 990.8mb 45f 44f
7:50am 13ft 11s 8s 20 25 mph 991.2mb 45f 45f
6:50am 13ft 11s 8s 20 25 mph 991.8mb 45f 45f
5:50am 11ft 11s 7s 20 25 mph 992mb 45f 45f
4:50am 12ft 11s 7s 18 22 mph 991.3mb 46f 45f
3:50am 11ft 10s 7s 22 27 mph 991.8mb 46f 44f
2:50am 10ft 10s 7s 22 27 mph 991.2mb 46f 45f
1:50am 11ft 10s 7s 25 31 mph 990.9mb 46f 45f
12:50am 10ft 10s 6s 22 27 mph 990.7mb 46f 44f
Wed 11/30 11:50pm 11ft 10s 7s 22 27 mph 990.1mb 46f 44f
10:50pm 10ft 10s 7s 20 25 mph 989.3mb 46f 44f
9:50pm 10ft 10s 7s 18 22 mph 988.5mb 46f 43f
8:50pm 11ft 10s 7s 16 18 mph 987.8mb 46f 43f
7:50pm 11ft 9s 7s 20 25 mph 987.2mb 46f 43f
6:50pm 10.5ft 9s 7s 18 25 mph 986.9mb 46f 45f
5:50pm 10ft 9s 7s 16 20 mph 986.7mb 46f 44f
4:50pm 11.5ft 10s 7s 20 25 mph 986.6mb 46f 44f
3:50pm 11ft 10s 7s 20 25 mph 986.7mb 46f 44f
2:50pm 10ft 10s 6s 34 40 mph 986.7mb 46f 42f
1:50pm 10.5ft 9s 6s 25 27 mph 987.2mb 46f 45f
12:50pm 10.5ft 9s 6s 25 31 mph 988mb 46f 45f
11:50am 10ft 8s 6s 20 27 mph 988.5mb 46f 45f
10:50am 10ft 8s 6s 25 27 mph 989.2mb 46f 45f
9:50am 11ft 8s 6s 22 31 mph 989mb 46f 45f
8:50am 10.5ft 10s 6s 27 36 mph 988.7mb 46f 45f
7:50am 10ft 7s 6s 29 36 mph 989.2mb 46f 44f
6:50am 9.5ft 10s 6s 29 38 mph 990.6mb 46f 44f
5:50am 10ft 11s 6s 29 36 mph 992.4mb 46f 42f
4:50am 10ft 10s 6s 22 29 mph 994mb 46f 42f
3:50am 11ft 10s 7s 22 29 mph 995.2mb 46f 43f
2:50am 11ft 8s 7s 20 25 mph 996.3mb 46f 42f
1:50am 12.5ft 10s 7s 20 27 mph 996.9mb 46f 43f
12:50am 12ft 11s 7s 18 25 mph 997.6mb 46f 41f